createdAt,value
2019-03-02T00:01:36.495Z,81.57
2019-03-02T00:04:09.615Z,81.23
2019-03-02T00:06:37.177Z,80.90
2019-03-02T00:09:07.361Z,80.81
2019-03-02T00:11:36.796Z,80.73
2019-03-02T00:14:06.244Z,80.91
2019-03-02T00:16:35.671Z,80.74
2019-03-02T00:19:06.790Z,81.02
2019-03-02T00:21:36.300Z,81.04
2019-03-02T00:24:05.738Z,80.92
2019-03-02T00:26:35.173Z,80.26
2019-03-02T00:29:07.688Z,80.59
2019-03-02T00:31:35.782Z,79.92
2019-03-02T00:34:05.221Z,80.27
2019-03-02T00:36:34.674Z,80.21
2019-03-02T00:39:05.053Z,80.31
2019-03-02T00:41:34.478Z,80.46
2019-03-02T00:44:04.817Z,80.59
2019-03-02T00:46:34.338Z,80.29
2019-03-02T00:49:03.773Z,80.11
2019-03-02T00:51:33.201Z,79.81
2019-03-02T00:54:02.723Z,79.85
2019-03-02T00:56:32.150Z,80.00
2019-03-02T00:59:03.903Z,80.06
2019-03-02T01:01:32.744Z,80.10
2019-03-02T01:04:02.180Z,79.83
2019-03-02T01:06:31.622Z,79.52
2019-03-02T01:09:01.056Z,79.65
2019-03-02T01:11:32.893Z,79.62
2019-03-02T01:14:01.678Z,79.70
2019-03-02T01:16:31.127Z,79.98
2019-03-02T01:19:00.558Z,80.00
2019-03-02T01:21:30.009Z,80.10
2019-03-02T01:23:59.724Z,80.59
2019-03-02T01:26:30.624Z,80.55
2019-03-02T01:29:00.410Z,80.61
2019-03-02T01:31:29.859Z,80.36
2019-03-02T01:34:00.669Z,80.51
2019-03-02T01:36:32.247Z,80.61
2019-03-02T01:39:01.647Z,80.13
2019-03-02T01:41:31.087Z,80.34
2019-03-02T01:44:00.529Z,80.38
2019-03-02T01:46:29.963Z,80.85
2019-03-02T01:49:01.617Z,80.48
2019-03-02T01:51:30.578Z,80.82
2019-03-02T01:54:00.001Z,80.59
2019-03-02T01:56:29.448Z,80.89
2019-03-02T01:59:00.632Z,81.24
2019-03-02T02:01:30.135Z,81.39
2019-03-02T02:03:59.564Z,81.32
2019-03-02T02:06:29.082Z,81.29
2019-03-02T02:09:01.747Z,80.99
2019-03-02T02:11:29.942Z,81.04
2019-03-02T02:13:59.383Z,80.80
2019-03-02T02:16:28.820Z,80.41
2019-03-02T02:18:59.334Z,80.33
2019-03-02T02:21:28.964Z,80.55
2019-03-02T02:23:58.403Z,80.43
2019-03-02T02:26:27.845Z,80.33
2019-03-02T02:28:57.283Z,80.44
2019-03-02T02:31:26.746Z,79.83
2019-03-02T02:33:56.179Z,79.84
2019-03-02T02:36:25.626Z,80.40
2019-03-02T02:38:55.803Z,80.21
2019-03-02T02:41:25.346Z,80.56
2019-03-02T02:43:59.052Z,80.52
2019-03-02T02:46:27.315Z,80.45
2019-03-02T02:48:57.123Z,80.47
2019-03-02T02:51:26.561Z,80.77
2019-03-02T02:53:55.995Z,80.43
2019-03-02T02:56:25.442Z,81.05
2019-03-02T02:58:56.290Z,80.62
2019-03-02T03:01:32.969Z,80.92
2019-03-02T03:03:59.377Z,81.27
2019-03-02T03:06:32.080Z,81.52
2019-03-02T03:08:59.530Z,81.36
2019-03-02T03:11:28.979Z,81.42
2019-03-02T03:13:58.421Z,81.01
2019-03-02T03:16:27.884Z,81.22
2019-03-02T03:18:57.316Z,80.98
2019-03-02T03:21:27.767Z,81.49
2019-03-02T03:24:02.936Z,81.20
2019-03-02T03:26:31.048Z,80.85
2019-03-02T03:29:00.259Z,80.71
2019-03-02T03:31:31.630Z,80.27
2019-03-02T03:34:00.884Z,79.81
2019-03-02T03:36:33.926Z,79.80
2019-03-02T03:39:02.627Z,80.34
2019-03-02T03:41:32.652Z,80.51
2019-03-02T03:44:02.087Z,79.74
2019-03-02T03:46:31.528Z,79.43
2019-03-02T03:49:00.969Z,79.53
2019-03-02T03:51:32.021Z,79.47
2019-03-02T03:54:07.152Z,79.62
2019-03-02T03:56:32.815Z,80.03
2019-03-02T03:59:02.244Z,79.80
2019-03-02T04:01:31.692Z,80.14
2019-03-02T04:04:01.186Z,79.92
2019-03-02T04:06:30.637Z,80.03
2019-03-02T04:09:03.114Z,80.63
2019-03-02T04:11:31.233Z,80.64
2019-03-02T04:14:00.672Z,80.50
2019-03-02T04:16:30.163Z,80.15
2019-03-02T04:19:00.137Z,80.04
2019-03-02T04:21:36.820Z,79.41
2019-03-02T04:24:06.337Z,79.30
2019-03-02T04:26:36.726Z,78.97
2019-03-02T04:29:10.037Z,79.05
2019-03-02T04:31:38.130Z,79.24
2019-03-02T04:34:07.561Z,80.08
2019-03-02T04:36:37.008Z,81.00
2019-03-02T04:39:09.488Z,80.92
2019-03-02T04:41:39.678Z,80.92
2019-03-02T04:44:09.503Z,80.80
2019-03-02T04:46:39.013Z,80.00
2019-03-02T04:49:10.989Z,80.09
2019-03-02T04:51:40.141Z,79.35
2019-03-02T04:54:09.744Z,79.23
2019-03-02T04:56:39.190Z,79.09
2019-03-02T04:59:08.629Z,79.46
2019-03-02T05:01:43.077Z,79.10
2019-03-02T05:04:10.196Z,79.33
2019-03-02T05:06:39.637Z,79.25
2019-03-02T05:09:09.272Z,78.82
2019-03-02T05:11:39.335Z,79.24
2019-03-02T05:14:10.069Z,78.70
2019-03-02T05:16:39.504Z,78.83
2019-03-02T05:19:08.966Z,79.18
2019-03-02T05:21:39.867Z,78.86
2019-03-02T05:24:10.199Z,78.80
2019-03-02T05:26:39.775Z,78.40
2019-03-02T05:29:09.272Z,78.97
2019-03-02T05:31:40.920Z,78.86
2019-03-02T05:34:09.879Z,79.60
2019-03-02T05:36:39.318Z,79.55
2019-03-02T05:39:08.789Z,80.16
2019-03-02T05:41:39.268Z,79.66
2019-03-02T05:44:09.733Z,79.83
2019-03-02T05:46:39.171Z,80.20
2019-03-02T05:49:08.617Z,79.59
2019-03-02T05:51:38.991Z,79.73
2019-03-02T05:54:09.215Z,79.72
2019-03-02T05:56:38.641Z,80.04
2019-03-02T05:59:08.091Z,80.19
2019-03-02T06:01:40.482Z,80.54
2019-03-02T06:04:08.736Z,80.10
2019-03-02T06:06:38.165Z,84.96
2019-03-02T06:09:13.993Z,79.59
2019-03-02T06:11:41.842Z,78.29
2019-03-02T06:14:11.324Z,76.76
2019-03-02T06:16:40.775Z,77.72
2019-03-02T06:19:10.226Z,77.71
2019-03-02T06:21:42.778Z,76.62
2019-03-02T06:24:10.870Z,77.01
2019-03-02T06:26:40.321Z,77.28
2019-03-02T06:29:09.751Z,77.35
2019-03-02T06:31:39.180Z,77.19
2019-03-02T06:34:09.557Z,77.57
2019-03-02T06:36:41.016Z,77.63
2019-03-02T06:39:10.164Z,78.03
2019-03-02T06:41:39.618Z,78.49
2019-03-02T06:44:09.071Z,78.87
2019-03-02T06:46:38.502Z,78.75
2019-03-02T06:49:07.956Z,79.09
2019-03-02T06:51:37.393Z,79.05
2019-03-02T06:54:09.125Z,79.13
2019-03-02T06:56:39.520Z,79.22
2019-03-02T06:59:09.074Z,79.53
2019-03-02T07:01:38.574Z,79.60
2019-03-02T07:04:08.023Z,79.14
2019-03-02T07:06:37.455Z,79.52
2019-03-02T07:09:09.618Z,79.74
2019-03-02T07:11:38.756Z,79.98
2019-03-02T07:14:08.214Z,80.24
2019-03-02T07:16:37.650Z,80.52
2019-03-02T07:19:21.824Z,80.31
2019-03-02T07:21:51.291Z,80.03
2019-03-02T07:24:20.737Z,79.90
2019-03-02T07:26:51.541Z,79.57
2019-03-02T07:29:21.108Z,79.22
2019-03-02T07:31:50.539Z,78.93
2019-03-02T07:34:19.992Z,78.99
2019-03-02T07:36:49.429Z,79.01
2019-03-02T07:39:18.894Z,78.96
2019-03-02T07:41:48.332Z,79.10
2019-03-02T07:44:18.835Z,78.73
2019-03-02T07:46:49.159Z,78.80
2019-03-02T07:49:18.696Z,78.67
2019-03-02T07:51:48.107Z,78.82
2019-03-02T07:54:17.566Z,78.31
2019-03-02T07:56:47.003Z,78.43
2019-03-02T07:59:16.466Z,78.14
2019-03-02T08:01:48.874Z,78.44
2019-03-02T08:04:17.082Z,78.32
2019-03-02T08:06:46.525Z,78.17
2019-03-02T08:09:15.961Z,77.19
2019-03-02T08:11:45.605Z,78.01
2019-03-02T08:14:16.575Z,77.61
2019-03-02T08:16:46.010Z,76.83
2019-03-02T08:19:15.444Z,76.52
2019-03-02T08:21:44.874Z,76.90
2019-03-02T08:24:14.324Z,76.47
2019-03-02T08:26:43.747Z,76.63
2019-03-02T08:29:14.277Z,76.26
2019-03-02T08:31:45.642Z,75.89
2019-03-02T08:34:14.896Z,75.65
2019-03-02T08:36:44.347Z,76.09
2019-03-02T08:39:14.707Z,76.01
2019-03-02T08:41:44.195Z,75.69
2019-03-02T08:44:15.564Z,75.69
2019-03-02T08:46:44.892Z,75.29
2019-03-02T08:49:14.334Z,75.01
2019-03-02T08:51:43.810Z,75.09
2019-03-02T08:54:13.247Z,75.46
2019-03-02T08:56:43.903Z,75.49
2019-03-02T08:59:13.861Z,75.42
2019-03-02T09:01:43.314Z,75.00
2019-03-02T09:04:13.993Z,74.93
2019-03-02T09:06:43.920Z,74.99
2019-03-02T09:09:13.374Z,74.73
2019-03-02T09:11:44.505Z,74.71
2019-03-02T09:14:14.038Z,74.72
2019-03-02T09:16:43.479Z,74.48
2019-03-02T09:19:12.932Z,73.99
2019-03-02T09:21:44.670Z,74.18
2019-03-02T09:24:14.240Z,73.65
2019-03-02T09:26:44.844Z,73.45
2019-03-02T09:29:14.415Z,73.38
2019-03-02T09:31:44.027Z,73.36
2019-03-02T09:34:13.500Z,73.43
2019-03-02T09:36:43.579Z,73.30
2019-03-02T09:39:13.134Z,72.75
2019-03-02T09:41:42.561Z,72.26
2019-03-02T09:44:12.011Z,71.92
2019-03-02T09:46:41.520Z,71.84
2019-03-02T09:49:11.903Z,71.68
2019-03-02T09:51:44.649Z,71.78
2019-03-02T09:54:12.526Z,71.47
2019-03-02T09:56:41.965Z,70.65
2019-03-02T09:59:11.420Z,70.72
2019-03-02T10:01:40.862Z,70.76
2019-03-02T10:04:10.307Z,70.62
2019-03-02T10:06:39.732Z,71.13
2019-03-02T10:09:09.418Z,71.10
2019-03-02T10:11:38.841Z,71.09
2019-03-02T10:14:26.622Z,71.17
2019-03-02T10:16:56.216Z,71.71
2019-03-02T10:19:28.841Z,71.35
2019-03-02T10:21:56.816Z,71.35
2019-03-02T10:24:26.296Z,71.36
2019-03-02T10:26:55.749Z,71.44
2019-03-02T10:29:25.190Z,71.16
2019-03-02T10:31:54.624Z,70.36
2019-03-02T10:34:24.070Z,70.27
2019-03-02T10:36:53.536Z,70.40
2019-03-02T10:39:22.978Z,70.07
2019-03-02T10:41:52.979Z,69.98
2019-03-02T10:44:23.582Z,70.15
2019-03-02T10:46:53.024Z,69.81
2019-03-02T10:49:22.459Z,69.81
2019-03-02T10:51:51.889Z,69.75
2019-03-02T10:54:21.340Z,69.54
2019-03-02T10:56:50.784Z,69.32
2019-03-02T10:59:20.235Z,69.12
2019-03-02T11:01:49.680Z,69.36
2019-03-02T11:04:35.514Z,68.86
2019-03-02T11:07:12.984Z,69.08
2019-03-02T11:09:44.166Z,69.07
2019-03-02T11:12:17.411Z,69.28
2019-03-02T11:14:53.652Z,68.56
2019-03-02T11:17:40.788Z,68.79
2019-03-02T11:20:26.964Z,68.24
2019-03-02T11:23:03.832Z,67.22
2019-03-02T11:25:39.139Z,67.13
2019-03-02T11:28:10.207Z,67.32
2019-03-02T11:30:43.939Z,67.72
2019-03-02T11:33:23.662Z,67.93
2019-03-02T11:36:06.433Z,68.01
2019-03-02T11:38:46.199Z,67.36
2019-03-02T11:41:20.984Z,67.20
2019-03-02T11:43:57.957Z,67.11
2019-03-02T11:46:31.445Z,67.66
2019-03-02T11:49:17.725Z,67.84
2019-03-02T11:51:48.807Z,67.42
2019-03-02T11:54:19.880Z,67.80
2019-03-02T11:56:56.757Z,68.25
2019-03-02T11:59:27.838Z,68.69
2019-03-02T12:02:03.863Z,68.59
2019-03-02T12:04:52.269Z,68.67
2019-03-02T12:08:00.352Z,68.58
2019-03-02T12:14:09.969Z,68.56
2019-03-02T12:17:16.707Z,68.64
2019-03-02T12:20:46.658Z,68.21
2019-03-02T12:23:34.130Z,70.14
2019-03-02T12:26:03.535Z,71.34
2019-03-02T12:28:43.570Z,71.10
2019-03-02T12:31:31.870Z,70.89
2019-03-02T12:34:02.288Z,70.03
2019-03-02T12:36:34.152Z,70.39
2019-03-02T12:39:07.174Z,70.53
2019-03-02T12:41:38.125Z,69.59
2019-03-02T12:44:17.517Z,68.85
2019-03-02T12:46:52.197Z,68.84
2019-03-02T12:49:22.641Z,68.42
2019-03-02T12:51:59.537Z,67.57
2019-03-02T12:54:39.283Z,67.77
2019-03-02T12:57:09.617Z,66.84
2019-03-02T12:59:49.521Z,67.22
2019-03-02T13:02:18.754Z,66.64
2019-03-02T13:05:01.597Z,66.58
2019-03-02T13:07:51.711Z,66.55
2019-03-02T13:10:22.856Z,66.36
2019-03-02T13:13:09.204Z,66.59
2019-03-02T13:15:56.325Z,66.80
2019-03-02T13:18:33.160Z,66.91
2019-03-02T13:21:20.057Z,66.95
2019-03-02T13:24:07.397Z,67.14
2019-03-02T13:26:54.627Z,67.08
2019-03-02T13:29:27.396Z,66.50
2019-03-02T13:32:01.723Z,66.21
2019-03-02T13:34:32.797Z,65.63
2019-03-02T13:37:03.889Z,65.50
2019-03-02T13:39:40.866Z,65.43
2019-03-02T13:42:17.468Z,65.64
2019-03-02T13:44:48.575Z,65.98
2019-03-02T13:50:23.020Z,64.86
2019-03-02T13:52:52.254Z,64.06
2019-03-02T13:55:30.185Z,64.15
2019-03-02T13:57:59.479Z,64.46
2019-03-02T14:00:47.917Z,64.53
2019-03-02T14:03:31.380Z,64.03
2019-03-02T14:06:03.135Z,64.34
2019-03-02T14:08:43.302Z,64.14
2019-03-02T14:11:36.354Z,63.83
2019-03-02T14:14:09.326Z,63.78
2019-03-02T14:16:55.240Z,63.71
2019-03-02T14:19:25.671Z,63.51
2019-03-02T14:21:59.377Z,63.78
2019-03-02T14:24:46.883Z,63.49
2019-03-02T14:27:19.242Z,63.53
2019-03-02T14:29:50.339Z,62.11
2019-03-02T14:32:22.518Z,62.43
2019-03-02T14:34:59.171Z,61.89
2019-03-02T14:37:39.869Z,61.84
2019-03-02T14:40:23.853Z,62.02
2019-03-02T14:42:54.928Z,61.49
2019-03-02T14:45:26.002Z,61.84
2019-03-02T14:48:04.248Z,62.00
2019-03-02T14:50:44.002Z,62.28
2019-03-02T14:53:28.730Z,62.29
2019-03-02T14:56:10.138Z,62.21
2019-03-02T14:58:39.724Z,61.97
2019-03-02T15:01:22.354Z,61.73
2019-03-02T15:03:53.453Z,61.78
2019-03-02T15:06:30.425Z,61.06
2019-03-02T15:09:04.470Z,60.97
2019-03-02T15:11:41.208Z,61.17
2019-03-02T15:14:23.999Z,60.87
2019-03-02T15:16:57.839Z,61.14
2019-03-02T15:19:56.196Z,60.85
2019-03-02T15:22:20.556Z,60.70
2019-03-02T15:24:54.775Z,60.79
2019-03-02T15:27:29.013Z,60.91
2019-03-02T15:29:58.210Z,61.00
2019-03-02T15:32:45.513Z,61.07
2019-03-02T15:35:14.917Z,61.03
2019-03-02T15:37:51.520Z,60.51
2019-03-02T15:40:24.650Z,60.79
2019-03-02T15:42:59.765Z,61.08
2019-03-02T15:45:30.922Z,61.23
2019-03-02T15:48:02.027Z,61.24
2019-03-02T15:50:39.206Z,61.43
2019-03-02T15:53:16.182Z,61.59
2019-03-02T15:55:49.424Z,61.62
2019-03-02T15:58:27.417Z,61.62
2019-03-02T16:00:58.491Z,61.70
2019-03-02T16:03:44.834Z,61.85
2019-03-02T16:06:14.017Z,61.64
2019-03-02T16:08:48.882Z,61.79
2019-03-02T16:11:32.631Z,61.82
2019-03-02T16:14:18.932Z,61.24
2019-03-02T16:16:59.967Z,61.07
2019-03-02T16:19:34.113Z,61.05
2019-03-02T16:22:11.106Z,61.22
2019-03-02T16:25:03.607Z,61.37
2019-03-02T16:27:33.087Z,61.11
2019-03-02T16:30:04.182Z,61.24
2019-03-02T16:32:51.868Z,60.73
2019-03-02T16:35:40.139Z,60.40
2019-03-02T16:38:19.037Z,60.12
2019-03-02T16:41:02.006Z,60.26
2019-03-02T16:43:35.504Z,60.12
2019-03-02T16:46:24.899Z,60.14
2019-03-02T16:49:11.270Z,60.27
2019-03-02T16:52:02.286Z,60.78
2019-03-02T16:54:49.472Z,60.47
2019-03-02T16:57:30.359Z,60.69
2019-03-02T16:59:59.572Z,60.95
2019-03-02T17:02:30.647Z,61.21
2019-03-02T17:04:59.924Z,61.21
2019-03-02T17:07:31.331Z,61.53
2019-03-02T17:10:02.936Z,61.67
2019-03-02T17:12:39.973Z,61.79
2019-03-02T17:15:23.645Z,61.84
2019-03-02T17:17:52.959Z,61.88
2019-03-02T17:20:24.052Z,62.07
2019-03-02T17:23:22.107Z,61.86
2019-03-02T17:26:05.064Z,61.97
2019-03-02T17:28:36.558Z,61.81
2019-03-02T17:31:19.944Z,61.69
2019-03-02T17:33:53.893Z,61.96
2019-03-02T17:36:43.076Z,62.14
2019-03-02T17:39:23.795Z,62.28
2019-03-02T17:42:01.751Z,62.67
2019-03-02T17:44:38.527Z,62.38
2019-03-02T17:47:26.625Z,62.15
2019-03-02T17:50:02.962Z,61.96
2019-03-02T17:52:46.709Z,62.14
2019-03-02T17:55:18.861Z,62.36
2019-03-02T17:57:54.577Z,62.41
2019-03-02T18:00:25.290Z,61.85
2019-03-02T18:02:56.354Z,61.89
2019-03-02T18:05:36.152Z,62.18
2019-03-02T18:08:16.105Z,61.94
2019-03-02T18:10:53.047Z,61.98
2019-03-02T18:13:43.247Z,62.19
2019-03-02T18:16:18.889Z,61.76
2019-03-02T18:18:48.324Z,61.82
2019-03-02T18:21:19.593Z,62.19
2019-03-02T18:23:49.089Z,62.36
2019-03-02T18:26:37.883Z,62.18
2019-03-02T18:29:29.271Z,62.43
2019-03-02T18:35:16.167Z,62.54
2019-03-02T18:38:08.911Z,62.76
2019-03-02T18:40:55.458Z,62.79
2019-03-02T18:43:44.803Z,62.90
2019-03-02T18:46:34.731Z,63.21
2019-03-02T18:55:28.806Z,63.67
2019-03-02T18:58:17.590Z,63.75
2019-03-02T19:01:06.452Z,63.86
2019-03-02T19:07:03.654Z,64.19
2019-03-02T19:09:53.517Z,64.31
2019-03-02T19:12:42.278Z,64.92
2019-03-02T19:18:26.000Z,65.53
2019-03-02T19:21:14.798Z,65.88
2019-03-02T19:27:32.042Z,66.16
2019-03-02T19:33:36.518Z,66.19
2019-03-02T19:36:25.305Z,66.12
2019-03-02T19:39:34.979Z,66.42
2019-03-02T19:42:23.770Z,65.96
2019-03-02T19:45:12.813Z,66.31
2019-03-02T19:48:01.593Z,66.68
2019-03-02T19:50:50.423Z,67.02
2019-03-02T19:53:39.201Z,66.81
2019-03-02T19:56:28.014Z,67.11
2019-03-02T19:59:16.793Z,67.41
2019-03-02T20:02:05.651Z,67.79
2019-03-02T20:04:47.008Z,67.95
2019-03-02T20:07:35.810Z,67.93
2019-03-02T20:13:23.498Z,68.27
2019-03-02T20:16:12.283Z,68.37
2019-03-02T20:19:01.074Z,68.37
2019-03-02T20:21:49.955Z,68.60
2019-03-02T20:24:38.702Z,68.59
2019-03-02T20:27:27.526Z,68.67
2019-03-02T20:30:37.227Z,69.00
2019-03-02T20:33:26.015Z,69.40
2019-03-02T20:36:14.794Z,69.46
2019-03-02T20:42:31.988Z,69.03
2019-03-02T20:45:14.319Z,68.95
2019-03-02T20:48:03.105Z,69.57
2019-03-02T20:50:51.907Z,69.80
2019-03-02T20:53:40.675Z,70.04
2019-03-02T20:56:29.496Z,70.07
2019-03-02T20:59:18.263Z,70.26
2019-03-02T21:02:07.078Z,70.37
2019-03-02T21:04:55.900Z,70.54
2019-03-02T21:07:44.661Z,70.50
2019-03-02T21:14:02.304Z,70.54
2019-03-02T21:16:51.130Z,70.61
2019-03-02T21:19:39.913Z,70.58
2019-03-02T21:22:28.760Z,70.58
2019-03-02T21:25:17.690Z,70.64
2019-03-02T21:28:06.457Z,70.70
2019-03-02T21:34:02.995Z,70.71
2019-03-02T21:36:51.857Z,70.16
2019-03-02T21:39:40.625Z,70.02
2019-03-02T21:42:29.400Z,69.49
2019-03-02T21:45:39.107Z,69.55
2019-03-02T21:48:27.853Z,69.19
2019-03-02T21:51:37.560Z,69.18
2019-03-02T21:54:26.337Z,68.94
2019-03-02T21:57:15.105Z,68.65
2019-03-02T22:03:32.270Z,68.32
2019-03-02T22:06:21.218Z,67.89
2019-03-02T22:08:50.645Z,68.20
2019-03-02T22:11:39.622Z,67.82
2019-03-02T22:14:28.408Z,68.26
2019-03-02T22:17:17.210Z,68.17
2019-03-02T22:20:25.290Z,68.29
2019-03-02T22:23:14.089Z,68.02
2019-03-02T22:26:02.873Z,69.72
2019-03-02T22:28:51.762Z,68.63
2019-03-02T22:31:40.549Z,66.85
2019-03-02T22:34:48.633Z,67.50
2019-03-02T22:37:37.451Z,67.30
2019-03-02T22:43:54.850Z,67.61
2019-03-02T22:46:37.009Z,67.90
2019-03-02T22:49:25.807Z,68.19
2019-03-02T22:52:14.587Z,68.12
2019-03-02T22:55:03.351Z,68.37
2019-03-02T22:57:52.153Z,68.38
2019-03-02T23:01:01.832Z,68.93
2019-03-02T23:03:50.673Z,68.78
2019-03-02T23:06:58.492Z,68.50
2019-03-02T23:09:47.267Z,68.72
2019-03-02T23:12:36.039Z,68.23
2019-03-02T23:15:45.717Z,68.26
2019-03-02T23:18:34.481Z,68.09
2019-03-02T23:21:23.260Z,68.11
2019-03-02T23:27:27.289Z,67.90
2019-03-02T23:30:35.426Z,67.97
2019-03-02T23:33:24.191Z,67.74
2019-03-02T23:36:12.960Z,67.64
2019-03-02T23:39:01.732Z,67.76
2019-03-02T23:41:50.494Z,67.68
2019-03-02T23:44:39.348Z,68.04
2019-03-02T23:47:20.809Z,68.55
2019-03-02T23:50:30.491Z,68.98
2019-03-02T23:53:19.262Z,68.84
2019-03-02T23:56:08.029Z,68.85
2019-03-02T23:58:56.800Z,69.03
